createdAt,value
2022-12-27T00:01:23.297Z,98159.84
2022-12-27T00:03:49.899Z,98147.16
2022-12-27T00:06:20.183Z,98147.81
2022-12-27T00:08:47.185Z,98143.41
2022-12-27T00:11:17.167Z,98151.66
2022-12-27T00:13:43.786Z,98154.34
2022-12-27T00:16:12.671Z,98144.75
2022-12-27T00:18:40.574Z,98137.16
2022-12-27T00:21:08.659Z,98141.94
2022-12-27T00:23:39.187Z,98156.13
2022-12-27T00:26:13.262Z,98149.97
2022-12-27T00:28:39.822Z,98152.66
2022-12-27T00:31:06.573Z,98159.47
2022-12-27T00:33:35.003Z,98154.78
2022-12-27T00:36:04.304Z,98150.91
2022-12-27T00:38:32.425Z,98145.44
2022-12-27T00:40:59.754Z,98146.28
2022-12-27T00:43:26.541Z,98144.34
2022-12-27T00:45:53.741Z,98133.72
2022-12-27T00:48:20.757Z,98138.88
2022-12-27T00:50:47.688Z,98136.38
2022-12-27T00:53:14.387Z,98144.75
2022-12-27T00:55:45.267Z,98152.53
2022-12-27T00:58:12.061Z,98148.50
2022-12-27T01:00:38.757Z,98149.56
2022-12-27T01:03:05.351Z,98119.28
2022-12-27T01:05:32.291Z,98147.13
2022-12-27T01:07:58.882Z,98154.59
2022-12-27T01:10:25.536Z,98145.00
2022-12-27T01:12:52.064Z,98155.22
2022-12-27T01:15:18.657Z,98140.06
2022-12-27T01:17:45.203Z,98143.31
2022-12-27T01:20:11.798Z,98142.94
2022-12-27T01:22:38.390Z,98139.63
2022-12-27T01:25:05.613Z,98127.97
2022-12-27T01:27:32.040Z,98145.31
2022-12-27T01:29:58.872Z,98136.09
2022-12-27T01:32:25.419Z,98128.19
2022-12-27T01:34:51.940Z,98126.41
2022-12-27T01:37:18.547Z,98134.34
2022-12-27T01:39:45.170Z,98129.88
2022-12-27T01:42:37.679Z,98130.34
2022-12-27T01:45:14.582Z,98107.66
2022-12-27T01:47:46.874Z,98126.19
2022-12-27T01:50:33.695Z,98117.56
2022-12-27T01:53:03.138Z,98126.25
2022-12-27T01:55:38.529Z,98131.19
2022-12-27T01:58:35.472Z,98129.22
2022-12-27T02:01:05.139Z,98137.09
2022-12-27T02:03:39.143Z,98136.41
2022-12-27T02:06:08.434Z,98134.69
2022-12-27T02:08:44.000Z,98140.56
2022-12-27T02:11:13.075Z,98136.19
2022-12-27T02:13:46.580Z,98137.78
2022-12-27T02:16:18.864Z,98136.94
2022-12-27T02:18:46.676Z,98125.72
2022-12-27T02:21:43.075Z,98132.78
2022-12-27T02:24:30.968Z,98127.69
2022-12-27T02:27:18.929Z,98125.97
2022-12-27T02:30:08.126Z,98134.19
2022-12-27T02:33:03.494Z,98133.28
2022-12-27T02:35:44.117Z,98131.56
2022-12-27T02:38:41.939Z,98128.25
2022-12-27T02:41:30.427Z,98096.38
2022-12-27T02:44:16.904Z,98124.22
2022-12-27T02:47:03.661Z,98124.94
2022-12-27T02:49:57.900Z,98121.75
2022-12-27T02:53:03.883Z,98118.25
2022-12-27T02:56:08.431Z,98120.41
2022-12-27T02:58:34.888Z,98126.06
2022-12-27T03:01:29.288Z,98132.44
2022-12-27T03:04:15.213Z,98133.91
2022-12-27T03:06:52.736Z,98134.72
2022-12-27T03:09:51.223Z,98108.06
2022-12-27T03:13:00.948Z,98134.75
2022-12-27T03:16:04.874Z,98134.81
2022-12-27T03:18:31.384Z,98137.94
2022-12-27T03:21:18.220Z,98116.16
2022-12-27T03:24:04.585Z,98135.56
2022-12-27T03:26:34.878Z,98132.38
2022-12-27T03:29:21.954Z,98118.50
2022-12-27T03:32:12.822Z,98123.16
2022-12-27T03:34:45.455Z,98126.59
2022-12-27T03:37:34.496Z,98128.38
2022-12-27T03:40:34.953Z,98121.88
2022-12-27T03:43:10.834Z,98126.53
2022-12-27T03:46:09.662Z,98123.16
2022-12-27T03:49:00.658Z,98129.50
2022-12-27T03:51:32.700Z,98125.41
2022-12-27T03:54:07.256Z,98123.22
2022-12-27T03:56:34.008Z,98115.56
2022-12-27T03:59:02.406Z,98135.25
2022-12-27T04:01:28.968Z,98120.97
2022-12-27T04:03:55.661Z,98144.34
2022-12-27T04:06:22.218Z,98149.63
2022-12-27T04:09:07.195Z,98144.81
2022-12-27T04:11:52.053Z,98141.78
2022-12-27T04:14:37.597Z,98129.53
2022-12-27T04:17:22.627Z,98138.69
2022-12-27T04:20:07.465Z,98140.34
2022-12-27T04:22:52.699Z,98145.44
2022-12-27T04:25:37.601Z,98150.16
2022-12-27T04:28:22.817Z,98146.44
2022-12-27T04:31:07.774Z,98154.34
2022-12-27T04:33:52.936Z,98153.53
2022-12-27T04:36:19.492Z,98148.63
2022-12-27T04:38:46.005Z,98146.16
2022-12-27T04:41:30.876Z,98149.34
2022-12-27T04:44:15.772Z,98132.50
2022-12-27T04:47:01.360Z,98140.66
2022-12-27T04:49:46.700Z,98144.16
2022-12-27T04:52:40.323Z,98137.34
2022-12-27T04:55:25.036Z,98147.78
2022-12-27T04:57:52.598Z,98147.69
2022-12-27T05:00:39.897Z,98152.72
2022-12-27T05:03:14.099Z,98157.56
2022-12-27T05:05:42.670Z,98159.91
2022-12-27T05:08:28.845Z,98171.44
2022-12-27T05:11:14.213Z,98170.34
2022-12-27T05:13:59.291Z,98168.88
2022-12-27T05:16:36.751Z,98173.22
2022-12-27T05:19:04.479Z,98173.53
2022-12-27T05:21:31.227Z,98176.56
2022-12-27T05:24:36.054Z,98183.28
2022-12-27T05:27:02.613Z,98176.78
2022-12-27T05:29:35.871Z,98166.34
2022-12-27T05:32:03.349Z,98172.09
2022-12-27T05:34:32.156Z,98171.22
2022-12-27T05:36:58.663Z,98176.47
2022-12-27T05:39:25.184Z,98179.50
2022-12-27T05:41:52.216Z,98172.41
2022-12-27T05:44:18.777Z,98159.69
2022-12-27T05:46:45.286Z,98173.53
2022-12-27T05:49:11.840Z,98184.31
2022-12-27T05:51:38.365Z,98162.81
2022-12-27T05:54:05.120Z,98186.63
2022-12-27T05:56:31.714Z,98188.13
2022-12-27T05:58:58.476Z,98185.66
2022-12-27T06:01:25.084Z,98189.94
2022-12-27T06:03:51.648Z,98189.22
2022-12-27T06:06:18.197Z,98189.72
2022-12-27T06:08:44.785Z,98191.72
2022-12-27T06:11:14.753Z,98189.66
2022-12-27T06:13:43.094Z,98190.53
2022-12-27T06:16:12.173Z,98190.59
2022-12-27T06:18:40.398Z,98187.41
2022-12-27T06:21:11.398Z,98182.63
2022-12-27T06:23:39.644Z,98182.69
2022-12-27T06:26:18.737Z,98197.06
2022-12-27T06:28:45.508Z,98195.41
2022-12-27T06:31:12.399Z,98187.19
2022-12-27T06:33:39.048Z,98190.94
2022-12-27T06:36:12.539Z,98192.00
2022-12-27T06:38:39.391Z,98190.47
2022-12-27T06:41:09.035Z,98187.34
2022-12-27T06:43:35.762Z,98183.28
2022-12-27T06:46:05.177Z,98177.97
2022-12-27T06:48:32.032Z,98176.25
2022-12-27T06:50:58.756Z,98184.41
2022-12-27T06:53:25.411Z,98192.13
2022-12-27T06:55:52.017Z,98191.38
2022-12-27T06:58:18.710Z,98177.38
2022-12-27T07:00:45.303Z,98185.78
2022-12-27T07:03:11.873Z,98196.16
2022-12-27T07:05:38.792Z,98196.19
2022-12-27T07:08:06.114Z,98194.91
2022-12-27T07:10:32.553Z,98189.53
2022-12-27T07:12:59.335Z,98194.72
2022-12-27T07:15:25.924Z,98191.91
2022-12-27T07:17:52.499Z,98200.06
2022-12-27T07:20:19.219Z,98199.09
2022-12-27T07:22:45.823Z,98199.22
2022-12-27T07:25:12.458Z,98193.63
2022-12-27T07:27:39.034Z,98200.94
2022-12-27T07:30:06.165Z,98201.47
2022-12-27T07:32:32.754Z,98207.09
2022-12-27T07:34:59.401Z,98201.91
2022-12-27T07:37:25.989Z,98189.97
2022-12-27T07:39:52.571Z,98198.13
2022-12-27T07:42:19.163Z,98205.19
2022-12-27T07:44:45.702Z,98200.34
2022-12-27T07:47:12.320Z,98200.34
2022-12-27T07:49:38.908Z,98197.22
2022-12-27T07:52:05.517Z,98201.31
2022-12-27T07:54:32.111Z,98201.78
2022-12-27T07:56:58.682Z,98172.00
2022-12-27T07:59:27.457Z,98191.75
2022-12-27T08:02:06.255Z,98181.28
2022-12-27T08:04:36.019Z,98187.66
2022-12-27T08:07:07.782Z,98192.41
2022-12-27T08:09:37.967Z,98191.81
2022-12-27T08:12:05.059Z,98193.88
2022-12-27T08:14:31.677Z,98187.59
2022-12-27T08:17:03.828Z,98184.81
2022-12-27T08:19:30.571Z,98193.22
2022-12-27T08:21:57.196Z,98193.31
2022-12-27T08:24:24.671Z,98193.06
2022-12-27T08:26:51.231Z,98194.63
2022-12-27T08:29:17.771Z,98188.06
2022-12-27T08:31:44.394Z,98187.84
2022-12-27T08:34:10.956Z,98198.66
2022-12-27T08:39:24.520Z,98182.16
2022-12-27T08:41:53.971Z,98174.69
2022-12-27T08:44:20.675Z,98171.66
2022-12-27T08:46:47.607Z,98162.63
2022-12-27T08:49:14.299Z,98173.50
2022-12-27T08:51:41.716Z,98167.25
2022-12-27T08:54:09.044Z,98175.25
2022-12-27T08:56:36.027Z,98165.00
2022-12-27T08:59:02.819Z,98152.00
2022-12-27T09:01:29.455Z,98162.22
2022-12-27T09:03:56.095Z,98161.94
2022-12-27T09:06:24.855Z,98128.81
2022-12-27T09:08:52.663Z,98101.53
2022-12-27T09:11:22.208Z,98087.09
2022-12-27T09:13:48.886Z,98085.28
2022-12-27T09:16:18.913Z,98081.34
2022-12-27T09:18:49.002Z,98075.25
2022-12-27T09:21:19.695Z,98073.09
2022-12-27T09:23:47.337Z,98071.50
2022-12-27T09:26:22.466Z,98058.13
2022-12-27T09:28:50.119Z,98088.34
2022-12-27T09:31:19.293Z,98094.38
2022-12-27T09:33:46.283Z,98105.78
2022-12-27T09:36:14.924Z,98113.91
2022-12-27T09:38:42.088Z,98118.16
2022-12-27T09:44:48.682Z,98105.44
2022-12-27T09:47:31.707Z,98097.84
2022-12-27T09:50:06.414Z,98087.31
2022-12-27T09:53:08.521Z,98080.63
2022-12-27T09:55:52.044Z,98076.56
2022-12-27T09:58:33.892Z,98074.78
2022-12-27T10:01:01.608Z,98077.94
2022-12-27T10:03:30.598Z,98077.94
2022-12-27T10:06:05.038Z,98069.09
2022-12-27T10:09:24.109Z,98066.53
2022-12-27T10:12:09.940Z,98050.72
2022-12-27T10:14:42.651Z,98046.31
2022-12-27T10:17:52.858Z,98044.56
2022-12-27T10:20:28.706Z,98035.94
2022-12-27T10:23:06.454Z,98029.63
2022-12-27T10:25:35.048Z,98017.94
2022-12-27T10:28:14.360Z,98028.44
2022-12-27T10:30:42.506Z,98026.00
2022-12-27T10:33:20.756Z,98012.97
2022-12-27T10:35:48.811Z,98013.56
2022-12-27T10:38:15.378Z,98005.69
2022-12-27T10:41:05.463Z,97996.66
2022-12-27T10:43:38.508Z,98004.00
2022-12-27T10:46:15.101Z,97993.28
2022-12-27T10:49:19.686Z,97979.63
2022-12-27T10:51:41.211Z,97990.47
2022-12-27T10:54:14.200Z,97972.72
2022-12-27T10:56:44.179Z,97971.09
2022-12-27T10:59:20.211Z,97957.41
2022-12-27T11:02:08.540Z,97961.63
2022-12-27T11:04:35.186Z,97961.97
2022-12-27T11:07:04.349Z,97959.66
2022-12-27T11:09:32.912Z,97952.81
2022-12-27T11:12:14.285Z,97929.38
2022-12-27T11:14:56.119Z,97932.66
2022-12-27T11:17:30.375Z,97930.69
2022-12-27T11:20:01.315Z,97921.81
2022-12-27T11:22:28.028Z,97928.00
2022-12-27T11:24:59.160Z,97928.09
2022-12-27T11:27:28.359Z,97916.22
2022-12-27T11:29:58.221Z,97915.09
2022-12-27T11:32:25.227Z,97919.09
2022-12-27T11:34:54.777Z,97901.84
2022-12-27T11:37:25.492Z,97911.47
2022-12-27T11:39:55.101Z,97912.63
2022-12-27T11:42:40.266Z,97902.28
2022-12-27T11:45:19.204Z,97899.03
2022-12-27T11:48:11.561Z,97886.84
2022-12-27T11:50:56.482Z,97887.88
2022-12-27T11:53:41.763Z,97888.78
2022-12-27T11:57:00.924Z,97887.63
2022-12-27T11:59:38.083Z,97880.66
2022-12-27T12:02:08.225Z,97878.31
2022-12-27T12:04:49.769Z,97880.47
2022-12-27T12:07:37.518Z,97877.66
2022-12-27T12:10:27.220Z,97878.66
2022-12-27T12:12:56.951Z,97875.59
2022-12-27T12:15:53.832Z,97874.81
2022-12-27T12:18:38.754Z,97875.59
2022-12-27T12:21:34.906Z,97873.59
2022-12-27T12:24:29.547Z,97867.50
2022-12-27T12:27:22.381Z,97868.53
2022-12-27T12:30:12.483Z,97865.47
2022-12-27T12:32:39.104Z,97867.41
2022-12-27T12:35:47.005Z,97866.91
2022-12-27T12:38:40.771Z,97865.88
2022-12-27T12:41:45.498Z,97859.75
2022-12-27T12:44:58.633Z,97873.44
2022-12-27T12:47:46.412Z,97870.25
2022-12-27T12:50:34.020Z,97867.78
2022-12-27T12:53:19.867Z,97871.56
2022-12-27T12:56:13.341Z,97862.34
2022-12-27T12:58:43.173Z,97869.84
2022-12-27T13:01:21.966Z,97864.59
2022-12-27T13:04:27.410Z,97869.31
2022-12-27T13:06:59.854Z,97868.75
2022-12-27T13:10:01.954Z,97862.31
2022-12-27T13:12:52.293Z,97869.50
2022-12-27T13:15:47.839Z,97850.25
2022-12-27T13:18:22.747Z,97856.91
2022-12-27T13:21:11.906Z,97865.44
2022-12-27T13:23:55.219Z,97866.19
2022-12-27T13:26:53.978Z,97860.47
2022-12-27T13:29:37.169Z,97851.88
2022-12-27T13:32:06.400Z,97870.53
2022-12-27T13:35:04.929Z,97855.59
2022-12-27T13:37:37.517Z,97848.16
2022-12-27T13:40:17.514Z,97858.88
2022-12-27T13:43:05.965Z,97851.72
2022-12-27T13:45:52.831Z,97859.69
2022-12-27T13:48:37.730Z,97867.13
2022-12-27T13:51:13.239Z,97876.06
2022-12-27T13:53:51.739Z,97873.53
2022-12-27T13:56:55.166Z,97875.59
2022-12-27T13:59:40.911Z,97881.69
2022-12-27T14:02:32.598Z,97890.66
2022-12-27T14:05:02.424Z,97894.31
2022-12-27T14:07:50.840Z,97902.41
2022-12-27T14:10:32.127Z,97898.44
2022-12-27T14:13:26.588Z,97903.50
2022-12-27T14:16:18.698Z,97902.03
2022-12-27T14:19:14.947Z,97898.16
2022-12-27T14:21:55.020Z,97898.19
2022-12-27T14:24:59.050Z,97901.91
2022-12-27T14:27:59.435Z,97903.59
2022-12-27T14:31:03.634Z,97894.19
2022-12-27T14:33:33.011Z,97897.53
2022-12-27T14:36:19.165Z,97898.13
2022-12-27T14:39:21.240Z,97903.97
2022-12-27T14:42:09.739Z,97911.75
2022-12-27T14:45:10.427Z,97910.59
2022-12-27T14:47:48.788Z,97909.69
2022-12-27T14:50:40.078Z,97898.84
2022-12-27T14:53:38.669Z,97901.78
2022-12-27T14:56:22.427Z,97902.13
2022-12-27T14:59:26.198Z,97908.25
2022-12-27T15:02:04.788Z,97914.34
2022-12-27T15:04:43.264Z,97909.81
2022-12-27T15:07:15.551Z,97919.84
2022-12-27T15:10:03.661Z,97906.78
2022-12-27T15:12:52.905Z,97913.41
2022-12-27T15:15:37.604Z,97919.97
2022-12-27T15:18:27.408Z,97920.84
2022-12-27T15:21:13.372Z,97924.56
2022-12-27T15:24:01.661Z,97917.53
2022-12-27T15:26:42.286Z,97924.72
2022-12-27T15:29:24.275Z,97925.56
2022-12-27T15:31:59.649Z,97927.63
2022-12-27T15:35:10.818Z,97929.66
2022-12-27T15:37:56.232Z,97931.44
2022-12-27T15:40:35.000Z,97943.38
2022-12-27T15:43:26.492Z,97937.59
2022-12-27T15:45:54.054Z,97939.16
2022-12-27T15:49:05.136Z,97951.47
2022-12-27T15:52:00.461Z,97952.75
2022-12-27T15:54:53.455Z,97957.31
2022-12-27T15:57:39.269Z,97962.19
2022-12-27T16:00:32.445Z,97961.16
2022-12-27T16:03:28.228Z,97970.88
2022-12-27T16:05:55.097Z,97969.47
2022-12-27T16:08:29.033Z,97967.56
2022-12-27T16:10:56.951Z,97968.28
2022-12-27T16:13:41.392Z,97968.66
2022-12-27T16:16:11.851Z,97974.16
2022-12-27T16:18:51.274Z,97979.69
2022-12-27T16:21:26.501Z,97987.59
2022-12-27T16:24:21.000Z,97994.78
2022-12-27T16:26:59.650Z,97985.75
2022-12-27T16:29:33.616Z,97993.81
2022-12-27T16:32:19.796Z,97980.91
2022-12-27T16:34:50.890Z,98007.16
2022-12-27T16:37:25.595Z,98008.66
2022-12-27T16:40:38.069Z,98016.53
2022-12-27T16:43:25.165Z,98024.06
2022-12-27T16:46:24.856Z,98031.44
2022-12-27T16:49:23.824Z,98032.16
2022-12-27T16:51:50.373Z,98030.22
2022-12-27T16:54:49.760Z,98028.38
2022-12-27T16:57:33.705Z,98038.81
2022-12-27T17:00:00.288Z,98050.56
2022-12-27T17:02:43.364Z,98048.78
2022-12-27T17:05:15.821Z,98046.69
2022-12-27T17:07:53.226Z,98051.88
2022-12-27T17:10:28.561Z,98046.00
2022-12-27T17:12:59.753Z,98050.53
2022-12-27T17:15:27.391Z,98050.50
2022-12-27T17:17:56.601Z,98051.88
2022-12-27T17:20:23.993Z,98044.03
2022-12-27T17:22:53.795Z,98055.81
2022-12-27T17:25:30.962Z,98042.03
2022-12-27T17:28:08.124Z,98059.56
2022-12-27T17:30:45.069Z,98063.72
2022-12-27T17:33:11.576Z,98062.94
2022-12-27T17:35:50.039Z,98059.34
2022-12-27T17:38:34.765Z,98053.09
2022-12-27T17:41:51.053Z,98066.75
2022-12-27T17:44:39.169Z,98058.66
2022-12-27T17:47:13.458Z,98054.81
2022-12-27T17:49:42.693Z,98065.38
2022-12-27T17:52:37.881Z,98057.34
2022-12-27T17:55:40.534Z,98074.00
2022-12-27T17:58:10.482Z,98068.34
2022-12-27T18:00:58.207Z,98077.56
2022-12-27T18:03:35.843Z,98075.91
2022-12-27T18:06:02.840Z,98074.78
2022-12-27T18:08:34.078Z,98078.13
2022-12-27T18:11:03.172Z,98065.03
2022-12-27T18:13:44.247Z,98079.69
2022-12-27T18:16:37.381Z,98082.84
2022-12-27T18:19:04.484Z,98071.03
2022-12-27T18:21:32.119Z,98086.09
2022-12-27T18:23:59.123Z,98098.09
2022-12-27T18:26:38.360Z,98094.41
2022-12-27T18:29:06.007Z,98079.69
2022-12-27T18:31:38.115Z,98096.03
2022-12-27T18:34:15.801Z,98099.66
2022-12-27T18:36:50.144Z,98101.47
2022-12-27T18:39:40.009Z,98098.34
2022-12-27T18:42:24.778Z,98098.50
2022-12-27T18:44:57.429Z,98100.69
2022-12-27T18:47:29.608Z,98093.28
2022-12-27T18:50:01.985Z,98097.03
2022-12-27T18:52:40.653Z,98092.78
2022-12-27T18:55:16.929Z,98101.41
2022-12-27T18:57:44.190Z,98102.63
2022-12-27T19:00:24.510Z,98105.28
2022-12-27T19:02:53.389Z,98109.81
2022-12-27T19:05:20.011Z,98109.56
2022-12-27T19:07:49.826Z,98116.53
2022-12-27T19:10:23.352Z,98124.75
2022-12-27T19:12:52.312Z,98115.63
2022-12-27T19:15:40.226Z,98125.38
2022-12-27T19:18:36.107Z,98122.38
2022-12-27T19:21:05.839Z,98126.41
2022-12-27T19:23:43.010Z,98127.25
2022-12-27T19:26:15.388Z,98127.38
2022-12-27T19:29:00.763Z,98126.78
2022-12-27T19:31:27.745Z,98132.53
2022-12-27T19:33:58.813Z,98119.91
2022-12-27T19:36:47.581Z,98142.91
2022-12-27T19:39:38.987Z,98136.53
2022-12-27T19:42:07.934Z,98135.00
2022-12-27T19:44:34.583Z,98136.56
2022-12-27T19:47:01.207Z,98128.66
2022-12-27T19:49:44.498Z,98134.94
2022-12-27T19:52:18.691Z,98138.94
2022-12-27T19:54:46.500Z,98127.81
2022-12-27T19:57:13.474Z,98141.63
2022-12-27T19:59:40.591Z,98152.84
2022-12-27T20:02:08.936Z,98145.25
2022-12-27T20:04:35.808Z,98151.28
2022-12-27T20:07:02.826Z,98129.50
2022-12-27T20:09:29.463Z,98151.81
2022-12-27T20:11:56.093Z,98155.03
2022-12-27T20:14:22.732Z,98152.69
2022-12-27T20:16:49.485Z,98160.59
2022-12-27T20:19:18.001Z,98163.09
2022-12-27T20:21:44.752Z,98174.25
2022-12-27T20:24:12.683Z,98175.84
2022-12-27T20:26:40.327Z,98182.25
2022-12-27T20:29:06.966Z,98179.09
2022-12-27T20:31:35.668Z,98194.22
2022-12-27T20:34:07.295Z,98190.25
2022-12-27T20:36:33.961Z,98192.66
2022-12-27T20:39:00.620Z,98186.69
2022-12-27T20:41:28.486Z,98183.56
2022-12-27T20:43:56.439Z,98170.53
2022-12-27T20:46:23.396Z,98194.00
2022-12-27T20:48:50.504Z,98181.78
2022-12-27T20:51:20.271Z,98198.56
2022-12-27T20:53:49.269Z,98198.66
2022-12-27T20:56:16.791Z,98205.88
2022-12-27T20:58:43.592Z,98180.06
2022-12-27T21:01:16.375Z,98197.19
2022-12-27T21:03:44.418Z,98204.34
2022-12-27T21:06:17.706Z,98192.00
2022-12-27T21:08:48.980Z,98186.03
2022-12-27T21:11:31.473Z,98199.50
2022-12-27T21:13:59.576Z,98201.06
2022-12-27T21:16:28.346Z,98209.03
2022-12-27T21:18:55.903Z,98210.59
2022-12-27T21:21:27.944Z,98206.59
2022-12-27T21:23:56.255Z,98206.56
2022-12-27T21:26:26.066Z,98218.13
2022-12-27T21:28:53.085Z,98215.75
2022-12-27T21:31:20.195Z,98220.16
2022-12-27T21:33:47.463Z,98216.59
2022-12-27T21:36:16.916Z,98226.19
2022-12-27T21:38:43.836Z,98229.78
2022-12-27T21:41:14.011Z,98215.88
2022-12-27T21:43:41.041Z,98232.97
2022-12-27T21:46:11.634Z,98227.41
2022-12-27T21:48:38.327Z,98236.16
2022-12-27T21:51:14.089Z,98239.34
2022-12-27T21:53:41.610Z,98239.78
2022-12-27T21:56:08.691Z,98248.16
2022-12-27T21:58:37.638Z,98227.88
2022-12-27T22:01:16.184Z,98240.22
2022-12-27T22:03:45.141Z,98230.69
2022-12-27T22:06:17.162Z,98240.25
2022-12-27T22:08:45.962Z,98240.22
2022-12-27T22:11:13.259Z,98243.03
2022-12-27T22:13:39.999Z,98243.44
2022-12-27T22:16:08.606Z,98237.84
2022-12-27T22:18:37.023Z,98237.84
2022-12-27T22:21:05.892Z,98251.00
2022-12-27T22:23:37.649Z,98241.84
2022-12-27T22:26:05.822Z,98239.06
2022-12-27T22:28:32.426Z,98248.19
2022-12-27T22:30:59.076Z,98246.19
2022-12-27T22:33:25.646Z,98246.22
2022-12-27T22:35:52.200Z,98246.22
2022-12-27T22:38:18.760Z,98246.56
2022-12-27T22:40:46.268Z,98250.53
2022-12-27T22:43:13.376Z,98235.03
2022-12-27T22:45:43.443Z,98255.28
2022-12-27T22:48:12.038Z,98255.28
2022-12-27T22:50:38.737Z,98251.31
2022-12-27T22:53:05.292Z,98244.97
2022-12-27T22:55:31.899Z,98261.66
2022-12-27T22:57:58.453Z,98243.38
2022-12-27T23:00:25.113Z,98266.41
2022-12-27T23:02:51.822Z,98250.09
2022-12-27T23:05:18.517Z,98256.03
2022-12-27T23:08:05.117Z,98253.97
2022-12-27T23:10:31.983Z,98259.50
2022-12-27T23:12:58.550Z,98259.19
2022-12-27T23:15:25.240Z,98255.97
2022-12-27T23:17:52.801Z,98259.13
2022-12-27T23:20:19.664Z,98259.16
2022-12-27T23:22:46.300Z,98258.38
2022-12-27T23:25:12.827Z,98259.13
2022-12-27T23:27:39.401Z,98251.56
2022-12-27T23:30:06.571Z,98256.75
2022-12-27T23:32:33.174Z,98256.00
2022-12-27T23:34:59.945Z,98256.00
2022-12-27T23:37:26.603Z,98259.94
2022-12-27T23:39:53.159Z,98257.53
2022-12-27T23:42:19.683Z,98259.88
2022-12-27T23:44:46.308Z,98253.50
2022-12-27T23:47:12.898Z,98259.81
2022-12-27T23:49:39.403Z,98259.00
2022-12-27T23:52:05.945Z,98251.88
2022-12-27T23:54:33.199Z,98240.38
2022-12-27T23:57:19.867Z,98242.38
2022-12-27T23:59:46.342Z,98244.34
